Armadale, Australia
Current Conditions -  °F | °C
As of 12:30 PM on Saturday 01 Nov 2014 (Local Time) from YPJT Reporting Station
Clear Clear  
Wind Chill: 82°   Ceiling: Unl
Heat Index: 82°   Visibility: 6mi
Dew Point: 36°   Wind: 10mph
Humidity: 19%   Direction: 330°NNW
Pressure: 30"   Gusts: NA
Location:  32.15°S, 116°E
Report Text: YPJT 010430Z AUTO 33009KT 310V030 9999 // NCD 28/02 Q1016
Loading
Personal Weather Stations






























Interactive Weather Map
Tropical Storm Tracking
New forecast layout! Learn more

10-Day Weather Forecast

Advertisements
Track Severe Weather on mobile